Time;durP1;ratioP1;P1;durP2;ratioP2;P2;SDS_P1;SDS_P2;PMS_P1;PMS_P2;Temp;Humidity;BMP_temperature;BMP_pressure;BME280_temperature;BME280_humidity;BME280_pressure;Samples;Min_cycle;Max_cycle;Signal;HPM_P1;HPM_P2
2023/07/19 00:02:18;;;;;;;38.83;6.43;;;28.60;45.50;;;;;;5044704;28;20232;-69
2023/07/19 00:04:45;;;;;;;25.03;5.27;;;28.60;45.50;;;;;;5040209;28;20208;-68
2023/07/19 00:07:12;;;;;;;25.80;5.63;;;28.60;45.50;;;;;;5036710;28;20292;-69
2023/07/19 00:09:40;;;;;;;35.13;6.47;;;28.60;45.50;;;;;;5029410;28;20201;-71
2023/07/19 00:12:08;;;;;;;58.20;8.50;;;28.60;45.50;;;;;;5028713;28;20216;-69
2023/07/19 00:14:35;;;;;;;30.27;5.80;;;28.60;45.50;;;;;;5029493;28;20637;-68
2023/07/19 00:17:02;;;;;;;29.33;6.00;;;28.50;45.50;;;;;;5029863;28;20193;-71
2023/07/19 00:19:29;;;;;;;38.87;6.57;;;28.60;45.50;;;;;;5041633;28;20566;-70
2023/07/19 00:21:56;;;;;;;46.83;7.27;;;28.50;45.50;;;;;;5043324;28;20220;-69
2023/07/19 00:24:23;;;;;;;35.93;6.37;;;28.50;45.50;;;;;;5044900;28;20204;-68
2023/07/19 00:26:51;;;;;;;27.90;5.53;;;28.50;45.60;;;;;;5047355;28;20202;-70
2023/07/19 00:29:18;;;;;;;29.03;5.63;;;28.50;45.60;;;;;;5048041;28;20207;-67
2023/07/19 00:31:45;;;;;;;46.90;7.07;;;28.50;45.60;;;;;;5048345;28;20231;-69
2023/07/19 00:34:12;;;;;;;25.80;5.30;;;28.50;45.60;;;;;;5049065;28;20258;-70
2023/07/19 00:36:39;;;;;;;33.83;6.03;;;28.50;45.70;;;;;;5042824;28;20711;-68
2023/07/19 00:39:06;;;;;;;37.00;6.40;;;28.50;46.20;;;;;;5038355;28;20193;-68
2023/07/19 00:41:33;;;;;;;27.03;5.30;;;28.50;45.60;;;;;;5029254;28;20228;-73
2023/07/19 00:44:03;;;;;;;33.97;6.07;;;28.50;45.70;;;;;;5040421;28;20211;-69
2023/07/19 00:46:30;;;;;;;38.80;6.50;;;28.50;45.70;;;;;;5047440;28;20188;-68
2023/07/19 00:48:58;;;;;;;45.07;6.90;;;28.50;45.70;;;;;;5027792;28;20680;-68
2023/07/19 00:51:25;;;;;;;61.43;8.93;;;28.40;45.60;;;;;;5043270;28;20206;-69
2023/07/19 00:53:54;;;;;;;25.60;5.73;;;28.50;45.70;;;;;;5042931;28;20203;-71
2023/07/19 00:56:21;;;;;;;24.47;5.13;;;28.50;45.80;;;;;;5041704;28;20200;-67
2023/07/19 00:58:50;;;;;;;28.67;5.93;;;28.50;45.80;;;;;;5036721;28;20200;-68
2023/07/19 01:01:21;;;;;;;27.27;5.67;;;28.40;45.80;;;;;;5028542;28;20250;-67
2023/07/19 01:03:47;;;;;;;41.03;7.20;;;28.50;45.80;;;;;;5027497;28;20380;-67
2023/07/19 01:06:14;;;;;;;30.77;5.93;;;28.40;45.70;;;;;;5037410;28;20291;-68
2023/07/19 01:08:41;;;;;;;33.53;6.17;;;28.40;45.80;;;;;;5034951;28;20200;-68
2023/07/19 01:11:08;;;;;;;45.33;7.60;;;28.40;45.80;;;;;;5046401;28;20784;-72
2023/07/19 01:13:35;;;;;;;30.43;5.77;;;28.40;45.90;;;;;;5048087;28;20649;-71
2023/07/19 01:16:02;;;;;;;45.43;7.03;;;28.40;45.90;;;;;;5042910;28;20197;-74
2023/07/19 01:18:30;;;;;;;55.87;8.17;;;28.40;45.90;;;;;;5034879;28;20204;-68
2023/07/19 01:20:57;;;;;;;26.93;5.67;;;28.40;45.90;;;;;;5046256;28;20239;-74
2023/07/19 01:23:26;;;;;;;32.97;6.37;;;28.40;45.90;;;;;;5045999;28;20208;-68
2023/07/19 01:25:53;;;;;;;30.87;5.53;;;28.40;45.90;;;;;;5034675;28;20225;-72
2023/07/19 01:28:20;;;;;;;30.97;5.90;;;28.40;45.90;;;;;;5028832;28;20312;-69
2023/07/19 01:30:47;;;;;;;35.07;6.50;;;28.40;45.90;;;;;;5042660;28;20215;-71
2023/07/19 01:33:14;;;;;;;26.73;5.33;;;28.40;45.90;;;;;;5036255;28;20200;-68
2023/07/19 01:35:40;;;;;;;30.50;5.83;;;28.40;45.90;;;;;;5034157;28;20685;-73
2023/07/19 01:38:07;;;;;;;76.07;9.90;;;28.40;45.90;;;;;;5042381;28;20209;-73
2023/07/19 01:40:36;;;;;;;31.53;5.87;;;28.40;45.90;;;;;;5042353;28;20197;-72
2023/07/19 01:43:03;;;;;;;28.33;5.87;;;28.40;45.90;;;;;;5029964;28;20200;-68
2023/07/19 01:45:30;;;;;;;31.27;6.03;;;28.30;45.80;;;;;;5029136;28;20208;-72
2023/07/19 01:47:56;;;;;;;27.60;5.73;;;28.40;46.00;;;;;;5029139;28;20207;-74
2023/07/19 01:50:23;;;;;;;19.57;4.90;;;28.40;46.00;;;;;;5043078;28;20246;-66
2023/07/19 01:52:50;;;;;;;24.33;5.43;;;28.30;45.90;;;;;;5037557;28;20288;-69
2023/07/19 01:55:17;;;;;;;27.70;5.67;;;28.30;45.90;;;;;;5031829;28;20197;-67
2023/07/19 01:57:45;;;;;;;34.30;6.27;;;28.30;45.90;;;;;;5039638;28;20204;-67
2023/07/19 02:00:13;;;;;;;28.80;5.60;;;28.30;45.90;;;;;;5033148;28;20205;-67
2023/07/19 02:02:40;;;;;;;25.60;5.43;;;28.30;45.90;;;;;;5029806;28;20231;-67
2023/07/19 02:05:08;;;;;;;39.40;6.50;;;28.30;46.00;;;;;;5041012;28;20236;-68
2023/07/19 02:07:35;;;;;;;49.93;7.27;;;28.30;46.00;;;;;;5026765;28;20203;-67
2023/07/19 02:10:02;;;;;;;25.43;5.27;;;28.30;46.00;;;;;;5044684;28;20226;-69
2023/07/19 02:12:29;;;;;;;24.70;5.53;;;28.30;46.00;;;;;;5047052;28;20215;-67
2023/07/19 02:14:57;;;;;;;29.37;5.60;;;28.30;46.00;;;;;;5040241;28;20193;-68
2023/07/19 02:17:24;;;;;;;19.80;4.97;;;28.30;46.00;;;;;;5046829;28;20206;-67
2023/07/19 02:19:51;;;;;;;29.20;5.53;;;28.30;46.00;;;;;;5047982;28;20200;-67
2023/07/19 02:22:17;;;;;;;35.37;6.40;;;28.30;46.60;;;;;;5032086;28;20221;-67
2023/07/19 02:24:44;;;;;;;26.90;5.20;;;28.30;46.00;;;;;;5031883;28;20205;-69
2023/07/19 02:27:12;;;;;;;44.93;7.30;;;28.30;46.10;;;;;;5048058;28;20664;-66
2023/07/19 02:29:39;;;;;;;29.43;6.17;;;28.30;46.00;;;;;;5031212;28;20662;-67
2023/07/19 02:32:08;;;;;;;23.87;5.30;;;28.30;46.10;;;;;;5033917;28;20196;-67
2023/07/19 02:34:35;;;;;;;22.00;5.20;;;28.30;46.10;;;;;;5051490;28;20230;-72
2023/07/19 02:37:02;;;;;;;28.47;5.60;;;28.30;46.10;;;;;;5050805;28;20211;-74
2023/07/19 02:39:30;;;;;;;31.20;5.87;;;28.30;46.10;;;;;;5050299;28;20228;-76
2023/07/19 02:41:57;;;;;;;26.90;5.67;;;28.30;46.10;;;;;;5050183;28;20208;-71
2023/07/19 02:44:24;;;;;;;23.30;5.23;;;28.30;46.10;;;;;;5031622;28;20208;-67
2023/07/19 02:46:51;;;;;;;29.20;5.90;;;28.30;46.10;;;;;;5031557;28;20193;-68
2023/07/19 02:49:19;;;;;;;26.13;5.33;;;28.30;46.10;;;;;;5034354;28;20193;-67
2023/07/19 02:51:46;;;;;;;25.27;6.00;;;28.30;46.10;;;;;;5035177;28;20218;-68
2023/07/19 02:54:13;;;;;;;22.37;5.20;;;28.30;46.10;;;;;;5050133;28;20221;-69
2023/07/19 02:56:40;;;;;;;31.33;5.97;;;28.30;46.10;;;;;;5030878;28;20654;-68
2023/07/19 02:59:06;;;;;;;49.93;7.73;;;28.30;46.10;;;;;;5030200;28;20653;-67
2023/07/19 03:01:36;;;;;;;29.67;5.73;;;28.30;46.10;;;;;;5033536;28;20225;-70
2023/07/19 03:04:03;;;;;;;29.47;5.80;;;28.30;46.10;;;;;;5030538;28;20197;-71
2023/07/19 03:06:31;;;;;;;30.17;5.93;;;28.30;46.20;;;;;;5031270;28;20200;-68
2023/07/19 03:08:58;;;;;;;30.73;5.67;;;28.30;46.10;;;;;;5035681;28;20200;-73
2023/07/19 03:11:25;;;;;;;37.87;6.63;;;28.30;46.10;;;;;;5042192;28;20220;-68
2023/07/19 03:13:52;;;;;;;41.10;7.07;;;28.20;46.10;;;;;;5039414;28;20219;-70
2023/07/19 03:16:18;;;;;;;37.53;6.63;;;28.30;46.20;;;;;;5044094;28;20223;-76
2023/07/19 03:18:45;;;;;;;29.27;5.57;;;28.20;46.10;;;;;;5042163;28;20212;-73
2023/07/19 03:21:12;;;;;;;29.73;5.70;;;28.20;46.20;;;;;;5046115;28;20767;-67
2023/07/19 03:23:40;;;;;;;34.50;6.17;;;28.20;46.20;;;;;;5047563;28;20192;-73
2023/07/19 03:26:07;;;;;;;32.47;6.10;;;28.20;46.20;;;;;;5039990;28;20660;-67
2023/07/19 03:28:34;;;;;;;30.93;6.47;;;28.20;46.20;;;;;;5029898;28;20204;-69
2023/07/19 03:31:01;;;;;;;25.87;5.43;;;28.20;46.20;;;;;;5033276;28;20206;-69
2023/07/19 03:33:28;;;;;;;25.53;5.40;;;28.20;46.30;;;;;;5034138;28;20634;-68
2023/07/19 03:35:55;;;;;;;31.27;6.20;;;28.20;46.20;;;;;;5049072;28;20227;-67
2023/07/19 03:38:22;;;;;;;27.43;5.63;;;28.20;46.20;;;;;;5049902;28;20216;-68
2023/07/19 03:40:50;;;;;;;42.93;6.97;;;28.20;46.20;;;;;;5035965;28;20193;-75
2023/07/19 03:43:17;;;;;;;38.83;6.93;;;28.20;46.30;;;;;;5035510;28;20508;-74
2023/07/19 03:45:44;;;;;;;34.43;6.13;;;28.20;46.20;;;;;;5049753;28;20199;-76
2023/07/19 03:48:11;;;;;;;36.73;6.20;;;28.20;46.30;;;;;;5049904;28;20204;-77
2023/07/19 03:50:38;;;;;;;27.57;5.67;;;28.20;46.30;;;;;;5032095;28;20208;-74
2023/07/19 03:53:05;;;;;;;47.67;7.27;;;28.20;46.30;;;;;;5028802;28;20690;-69
2023/07/19 03:55:32;;;;;;;25.20;5.40;;;28.20;46.30;;;;;;5038038;28;20204;-67
2023/07/19 03:58:01;;;;;;;53.17;8.03;;;28.20;46.30;;;;;;5045275;28;20201;-68
2023/07/19 04:00:28;;;;;;;32.23;5.80;;;28.20;46.30;;;;;;5029422;28;20201;-67
2023/07/19 04:02:55;;;;;;;21.17;4.80;;;28.20;46.30;;;;;;5031339;28;20242;-67
2023/07/19 04:05:22;;;;;;;47.37;7.20;;;28.20;46.40;;;;;;5034436;28;20203;-67
2023/07/19 04:07:49;;;;;;;34.83;6.30;;;28.20;46.40;;;;;;5035047;28;20565;-69
2023/07/19 04:10:16;;;;;;;24.10;5.63;;;28.20;46.40;;;;;;5035375;28;20699;-67
2023/07/19 04:12:43;;;;;;;29.53;5.77;;;28.20;47.00;;;;;;5028984;28;20215;-67
2023/07/19 04:15:11;;;;;;;23.70;5.20;;;28.20;46.40;;;;;;5039507;28;20201;-68
2023/07/19 04:17:38;;;;;;;25.10;5.27;;;28.20;46.40;;;;;;5031527;28;20196;-66
2023/07/19 04:20:07;;;;;;;20.00;4.93;;;28.20;46.40;;;;;;5038771;28;20208;-68
2023/07/19 04:22:34;;;;;;;31.17;6.13;;;28.20;46.50;;;;;;5049410;28;20707;-69
2023/07/19 04:25:01;;;;;;;21.83;4.90;;;28.20;46.50;;;;;;5048917;28;20192;-75
2023/07/19 04:27:28;;;;;;;29.37;5.50;;;28.20;46.40;;;;;;5049268;28;20246;-67
2023/07/19 04:29:55;;;;;;;33.87;6.60;;;28.20;46.50;;;;;;5049036;28;20204;-67
2023/07/19 04:32:23;;;;;;;28.77;5.60;;;28.20;46.50;;;;;;5034959;28;20271;-70
2023/07/19 04:34:52;;;;;;;28.33;5.63;;;28.20;46.50;;;;;;5049530;28;20224;-68
2023/07/19 04:37:19;;;;;;;26.47;5.40;;;28.10;46.50;;;;;;5047093;28;20209;-73
2023/07/19 04:39:46;;;;;;;35.80;5.87;;;28.20;46.50;;;;;;5049368;28;20231;-68
2023/07/19 04:42:13;;;;;;;27.37;5.53;;;28.20;46.50;;;;;;5035108;28;20224;-74
2023/07/19 04:44:40;;;;;;;25.33;5.10;;;28.20;46.60;;;;;;5036313;28;20211;-75
2023/07/19 04:47:07;;;;;;;33.50;6.00;;;28.20;46.60;;;;;;5048887;28;20219;-69
2023/07/19 04:49:35;;;;;;;36.93;6.43;;;28.20;46.60;;;;;;5047737;28;20211;-66
2023/07/19 04:52:02;;;;;;;23.33;5.23;;;28.20;46.50;;;;;;5028239;28;20279;-66
2023/07/19 04:54:29;;;;;;;31.73;6.00;;;28.20;46.50;;;;;;5029636;28;20201;-65
2023/07/19 04:56:55;;;;;;;29.63;5.60;;;28.20;46.60;;;;;;5028856;28;20255;-67
2023/07/19 04:59:22;;;;;;;22.43;5.13;;;28.20;46.60;;;;;;5040416;28;20200;-65
2023/07/19 05:01:49;;;;;;;35.93;6.27;;;28.20;46.50;;;;;;5038921;28;20220;-65
2023/07/19 05:04:16;;;;;;;21.53;5.47;;;28.10;46.50;;;;;;5027497;28;20204;-66
2023/07/19 05:06:45;;;;;;;45.93;7.03;;;28.20;46.50;;;;;;5032897;28;20291;-66
2023/07/19 05:09:11;;;;;;;32.17;5.90;;;28.20;46.50;;;;;;5033124;28;20201;-67
2023/07/19 05:11:39;;;;;;;88.20;10.73;;;28.10;46.50;;;;;;5028912;28;20203;-72
2023/07/19 05:14:06;;;;;;;26.83;5.43;;;28.20;46.50;;;;;;5046748;28;20275;-69
2023/07/19 05:16:34;;;;;;;32.13;6.13;;;28.20;46.50;;;;;;5036723;28;20212;-69
2023/07/19 05:19:01;;;;;;;24.73;5.40;;;28.10;47.10;;;;;;5042301;28;20217;-69
2023/07/19 05:21:28;;;;;;;30.30;5.80;;;28.20;46.60;;;;;;5034901;28;20201;-69
2023/07/19 05:23:56;;;;;;;21.50;5.37;;;28.20;46.60;;;;;;5028334;28;20225;-70
2023/07/19 05:26:25;;;;;;;25.77;5.23;;;28.20;46.60;;;;;;5032447;28;20933;-70
2023/07/19 05:28:51;;;;;;;30.47;5.80;;;28.20;46.70;;;;;;5041010;28;20675;-70
2023/07/19 05:31:19;;;;;;;24.20;5.23;;;28.20;46.70;;;;;;5032942;28;20207;-70
2023/07/19 05:33:46;;;;;;;47.60;7.23;;;28.20;46.80;;;;;;5028820;28;20221;-70
2023/07/19 05:36:13;;;;;;;22.13;5.40;;;28.20;46.80;;;;;;5046308;28;20284;-70
2023/07/19 05:38:40;;;;;;;37.90;6.43;;;28.10;46.80;;;;;;5030920;28;20216;-69
2023/07/19 05:41:08;;;;;;;25.27;5.40;;;28.20;46.90;;;;;;5046576;28;20215;-69
2023/07/19 05:43:35;;;;;;;22.63;5.07;;;28.20;47.00;;;;;;5038699;28;20239;-70
2023/07/19 05:46:05;;;;;;;33.50;6.80;;;28.20;47.00;;;;;;5029013;28;20200;-68
2023/07/19 05:48:33;;;;;;;29.93;6.07;;;28.20;47.10;;;;;;5031354;28;20587;-69
2023/07/19 05:51:00;;;;;;;26.10;5.20;;;28.20;47.20;;;;;;5043316;28;20617;-69
2023/07/19 05:53:27;;;;;;;51.50;7.43;;;28.20;47.10;;;;;;5043651;28;20212;-68
2023/07/19 05:55:54;;;;;;;24.00;5.33;;;28.20;47.10;;;;;;5034787;28;20196;-68
2023/07/19 05:58:22;;;;;;;22.67;5.23;;;28.20;47.10;;;;;;5028021;28;20211;-67
2023/07/19 06:00:50;;;;;;;27.50;6.07;;;28.20;47.10;;;;;;5043518;28;20210;-69
2023/07/19 06:03:17;;;;;;;33.20;7.23;;;28.20;47.10;;;;;;5047181;28;20219;-70
2023/07/19 06:05:44;;;;;;;32.10;7.50;;;28.20;47.20;;;;;;5034655;28;20288;-68
2023/07/19 06:08:11;;;;;;;27.70;6.87;;;28.20;47.10;;;;;;5030158;28;20203;-72
2023/07/19 06:10:38;;;;;;;38.83;8.00;;;28.20;47.10;;;;;;5028015;28;20204;-77
2023/07/19 06:13:05;;;;;;;27.27;7.20;;;28.20;47.10;;;;;;5041463;28;20200;-71
2023/07/19 06:15:34;;;;;;;31.10;7.30;;;28.30;47.20;;;;;;5048276;28;20299;-72
2023/07/19 06:18:02;;;;;;;33.20;7.50;;;28.30;47.20;;;;;;5049213;28;20287;-68
2023/07/19 06:20:29;;;;;;;31.50;7.13;;;28.30;47.20;;;;;;5029498;28;20283;-71
2023/07/19 06:22:56;;;;;;;37.67;7.80;;;28.30;47.30;;;;;;5027737;28;20224;-68
2023/07/19 06:25:23;;;;;;;27.10;5.97;;;28.30;47.30;;;;;;5039340;28;20207;-70
2023/07/19 06:27:50;;;;;;;29.20;7.13;;;28.30;47.30;;;;;;5068139;28;20206;-66
2023/07/19 06:30:17;;;;;;;74.23;10.50;;;28.30;47.40;;;;;;5046552;28;20196;-70
2023/07/19 06:32:45;;;;;;;21.70;5.47;;;28.30;47.40;;;;;;5061290;28;20229;-66
2023/07/19 06:35:12;;;;;;;29.07;6.00;;;28.30;47.40;;;;;;5067661;28;20294;-70
2023/07/19 06:37:39;;;;;;;30.43;6.80;;;28.30;47.50;;;;;;5067596;28;20211;-71
2023/07/19 06:40:07;;;;;;;30.43;6.33;;;28.40;47.60;;;;;;5034741;28;20192;-73
2023/07/19 06:42:34;;;;;;;39.53;6.93;;;28.40;47.50;;;;;;5038298;28;20235;-72
2023/07/19 06:45:01;;;;;;;37.73;6.33;;;28.40;47.50;;;;;;5043288;28;20701;-74
2023/07/19 06:47:29;;;;;;;24.20;5.50;;;28.40;47.50;;;;;;5047550;28;20393;-69
2023/07/19 06:49:58;;;;;;;36.43;6.77;;;28.40;47.50;;;;;;5047208;28;20758;-69
2023/07/19 06:52:25;;;;;;;29.00;5.80;;;28.40;47.60;;;;;;5045449;28;20734;-68
2023/07/19 06:54:52;;;;;;;41.30;7.43;;;28.40;47.60;;;;;;5034541;28;20203;-70
2023/07/19 06:57:20;;;;;;;25.23;5.90;;;28.40;47.60;;;;;;5030055;28;20204;-67
2023/07/19 06:59:49;;;;;;;38.00;6.50;;;28.50;47.70;;;;;;5043332;28;20200;-70
2023/07/19 07:02:16;;;;;;;26.57;5.57;;;28.50;47.60;;;;;;5044575;28;20949;-67
2023/07/19 07:04:43;;;;;;;25.27;5.60;;;28.50;47.60;;;;;;5044520;28;20567;-66
2023/07/19 07:07:11;;;;;;;61.20;8.10;;;28.50;47.60;;;;;;5031328;28;20197;-66
2023/07/19 07:09:38;;;;;;;28.40;6.00;;;28.60;47.60;;;;;;5065194;28;20294;-67
2023/07/19 07:12:07;;;;;;;34.47;6.40;;;28.60;47.50;;;;;;5070588;28;20187;-73
2023/07/19 07:14:33;;;;;;;28.17;6.10;;;28.60;47.50;;;;;;5058318;28;20206;-72
2023/07/19 07:17:00;;;;;;;33.60;6.20;;;28.60;47.60;;;;;;5046453;28;20197;-75
2023/07/19 07:19:27;;;;;;;22.20;5.33;;;28.60;47.50;;;;;;5040135;28;20567;-71
2023/07/19 07:21:54;;;;;;;22.40;5.23;;;28.60;47.50;;;;;;5049829;28;20852;-71
2023/07/19 07:24:22;;;;;;;52.47;8.43;;;28.60;47.50;;;;;;5050448;28;20212;-71
2023/07/19 07:26:49;;;;;;;29.33;6.30;;;28.70;47.60;;;;;;5043465;28;20298;-79
2023/07/19 07:29:16;;;;;;;27.77;5.53;;;28.70;47.60;;;;;;5032196;28;20212;-71
2023/07/19 07:31:43;;;;;;;45.53;7.13;;;28.70;47.70;;;;;;5047340;28;20204;-71
2023/07/19 07:34:11;;;;;;;31.13;6.03;;;28.70;47.50;;;;;;5043334;28;20231;-73
2023/07/19 07:36:37;;;;;;;34.43;6.20;;;28.70;47.40;;;;;;5031298;28;20204;-72
2023/07/19 07:39:05;;;;;;;27.33;5.63;;;28.70;47.40;;;;;;5036380;28;20215;-72
2023/07/19 07:41:34;;;;;;;38.90;6.57;;;28.70;47.40;;;;;;5044792;28;20214;-76
2023/07/19 07:44:01;;;;;;;24.03;5.37;;;28.70;47.40;;;;;;5037900;28;20216;-71
2023/07/19 07:46:29;;;;;;;22.53;5.80;;;28.70;47.50;;;;;;5070294;28;20724;-82
2023/07/19 07:48:59;;;;;;;31.70;5.97;;;28.70;47.50;;;;;;5053364;28;20212;-68
2023/07/19 07:51:27;;;;;;;28.73;5.57;;;28.70;47.50;;;;;;5031203;28;20615;-72
2023/07/19 07:53:54;;;;;;;20.87;4.90;;;28.80;47.50;;;;;;5030412;28;20196;-66
2023/07/19 07:56:22;;;;;;;49.20;7.90;;;28.70;47.50;;;;;;5044197;28;20200;-66
2023/07/19 07:58:50;;;;;;;32.20;6.47;;;28.80;47.50;;;;;;5029252;28;20834;-66
2023/07/19 08:01:17;;;;;;;21.20;5.07;;;28.80;47.50;;;;;;5029760;28;20216;-66
2023/07/19 08:03:44;;;;;;;27.03;5.40;;;28.80;47.50;;;;;;5041257;28;20228;-71
2023/07/19 08:06:11;;;;;;;29.83;5.93;;;28.80;47.50;;;;;;5035827;28;20235;-67
2023/07/19 08:08:37;;;;;;;25.13;5.43;;;28.80;47.50;;;;;;5028296;28;20576;-74
2023/07/19 08:11:05;;;;;;;34.53;6.20;;;28.80;47.50;;;;;;5029540;28;20211;-67
2023/07/19 08:13:33;;;;;;;20.83;4.93;;;28.90;47.60;;;;;;5029564;28;20660;-67
2023/07/19 08:16:01;;;;;;;27.33;6.07;;;28.80;47.50;;;;;;5030312;28;20189;-69
2023/07/19 08:18:28;;;;;;;45.33;6.97;;;28.80;47.50;;;;;;5033444;28;20215;-71
2023/07/19 08:20:57;;;;;;;26.23;5.47;;;28.80;47.50;;;;;;5049586;28;20200;-67
2023/07/19 08:23:24;;;;;;;36.20;6.17;;;28.80;47.50;;;;;;5040613;28;20236;-67
2023/07/19 08:25:55;;;;;;;23.47;4.97;;;28.90;47.60;;;;;;5029502;28;20298;-67
2023/07/19 08:28:23;;;;;;;24.27;5.27;;;28.80;47.50;;;;;;5029806;28;20204;-68
2023/07/19 08:30:49;;;;;;;31.13;5.93;;;28.80;47.50;;;;;;5029580;28;20209;-67
2023/07/19 08:33:18;;;;;;;20.53;5.00;;;28.90;47.60;;;;;;5045959;28;20658;-75
2023/07/19 08:35:44;;;;;;;28.50;5.63;;;28.80;47.50;;;;;;5049755;28;20196;-67
2023/07/19 08:38:12;;;;;;;24.57;5.13;;;28.90;47.60;;;;;;5049139;28;20711;-68
2023/07/19 08:40:40;;;;;;;28.47;6.33;;;28.90;47.60;;;;;;5045835;28;20203;-67
2023/07/19 08:43:08;;;;;;;27.97;5.63;;;28.90;47.60;;;;;;5068728;28;20211;-70
2023/07/19 08:45:37;;;;;;;25.67;5.07;;;28.80;47.50;;;;;;5069257;28;20207;-71
2023/07/19 08:48:05;;;;;;;33.43;6.23;;;28.90;47.60;;;;;;5069186;28;20203;-66
2023/07/19 08:50:34;;;;;;;26.50;5.43;;;28.90;47.60;;;;;;5068839;28;20203;-79
2023/07/19 08:53:02;;;;;;;32.03;5.97;;;28.90;47.60;;;;;;5068862;28;20210;-66
2023/07/19 08:55:31;;;;;;;33.30;6.27;;;28.90;47.60;;;;;;5068885;28;20291;-66
2023/07/19 08:57:58;;;;;;;20.70;5.23;;;28.90;47.60;;;;;;5050103;28;20236;-66
2023/07/19 09:00:27;;;;;;;41.77;6.83;;;28.90;47.60;;;;;;5046627;28;20447;-76
2023/07/19 09:02:55;;;;;;;29.97;5.60;;;28.80;47.50;;;;;;5028599;28;20631;-69
2023/07/19 09:05:22;;;;;;;41.83;6.67;;;28.90;47.60;;;;;;5052826;28;20199;-70
2023/07/19 09:07:50;;;;;;;28.30;5.87;;;28.90;47.60;;;;;;5029323;28;20627;-71
2023/07/19 09:10:19;;;;;;;22.50;5.00;;;28.90;47.60;;;;;;5033566;28;20201;-70
2023/07/19 09:12:47;;;;;;;22.73;5.17;;;28.90;47.60;;;;;;5036151;28;20208;-80
2023/07/19 09:15:14;;;;;;;22.73;5.17;;;28.90;47.60;;;;;;5048984;28;20199;-71
2023/07/19 09:17:42;;;;;;;25.93;5.43;;;28.80;47.60;;;;;;5029576;28;20215;-73
2023/07/19 09:20:10;;;;;;;30.60;5.83;;;28.80;47.60;;;;;;5029064;28;20204;-81
2023/07/19 09:22:38;;;;;;;25.33;5.23;;;28.90;47.90;;;;;;5033521;28;20205;-83
2023/07/19 09:25:09;;;;;;;29.43;5.43;;;28.80;47.70;;;;;;5047993;28;20554;-83
2023/07/19 09:27:37;;;;;;;28.37;5.53;;;28.80;47.70;;;;;;5039601;28;20201;-79
2023/07/19 09:30:08;;;;;;;25.53;5.50;;;28.90;47.80;;;;;;5028978;28;20673;-80
2023/07/19 09:32:35;;;;;;;34.90;6.20;;;28.90;47.80;;;;;;5031978;28;20234;-82
2023/07/19 09:35:05;;;;;;;28.57;5.60;;;28.90;47.90;;;;;;5036988;28;20208;-81
2023/07/19 09:37:32;;;;;;;25.27;5.47;;;29.00;48.00;;;;;;5037539;28;20225;-76
2023/07/19 09:40:00;;;;;;;24.80;5.37;;;28.90;47.90;;;;;;5028043;28;20207;-79
2023/07/19 09:42:31;;;;;;;29.63;6.07;;;29.00;48.00;;;;;;5031401;28;20204;-69
2023/07/19 09:45:00;;;;;;;20.83;5.17;;;29.00;48.00;;;;;;5048134;28;20719;-68
2023/07/19 09:47:27;;;;;;;44.37;6.87;;;29.00;48.00;;;;;;5037653;28;20200;-71
2023/07/19 09:49:54;;;;;;;27.37;5.60;;;29.00;47.90;;;;;;5048508;28;20207;-66
2023/07/19 09:52:25;;;;;;;41.27;6.63;;;29.00;47.90;;;;;;5028737;28;20201;-71
2023/07/19 09:54:53;;;;;;;31.03;5.83;;;29.10;48.60;;;;;;5032303;28;20195;-68
2023/07/19 09:57:20;;;;;;;26.67;5.40;;;29.10;47.90;;;;;;5045124;28;20199;-80
2023/07/19 09:59:51;;;;;;;41.17;6.53;;;29.10;47.90;;;;;;5048005;28;20207;-74
2023/07/19 10:02:19;;;;;;;31.77;5.73;;;29.10;47.90;;;;;;5039658;28;20622;-77
2023/07/19 10:04:50;;;;;;;25.23;5.27;;;29.10;47.90;;;;;;5034899;28;20227;-74
2023/07/19 10:07:21;;;;;;;42.00;6.80;;;29.10;47.90;;;;;;5032706;28;20292;-74
2023/07/19 10:09:49;;;;;;;32.63;5.87;;;29.10;47.90;;;;;;5036974;28;20205;-68
2023/07/19 10:12:26;;;;;;;29.37;5.83;;;29.10;47.90;;;;;;5040513;28;20206;-74
2023/07/19 10:14:56;;;;;;;28.70;5.40;;;29.20;47.90;;;;;;5033903;28;20530;-77
2023/07/19 10:17:24;;;;;;;22.67;5.00;;;29.10;47.80;;;;;;5047870;28;20202;-83
2023/07/19 10:20:12;;;;;;;35.53;6.20;;;29.10;47.80;;;;;;5038140;28;20697;-79
2023/07/19 10:23:05;;;;;;;26.50;5.40;;;29.10;47.90;;;;;;5028416;28;20303;-80
2023/07/19 10:25:34;;;;;;;26.07;5.50;;;29.10;47.90;;;;;;5013546;28;20798;-66
2023/07/19 10:28:02;;;;;;;32.87;6.03;;;29.10;47.80;;;;;;5027983;28;20209;-67
2023/07/19 10:30:52;;;;;;;29.17;5.37;;;29.10;47.80;;;;;;5030449;28;20210;-68
2023/07/19 10:33:20;;;;;;;46.73;7.27;;;29.10;47.90;;;;;;5044201;28;20224;-77
2023/07/19 10:35:50;;;;;;;16.53;4.00;;;29.10;47.80;;;;;;5032754;28;20655;-71
2023/07/19 10:38:19;;;;;;;21.27;4.83;;;29.10;47.90;;;;;;5046041;28;20208;-70
2023/07/19 10:40:48;;;;;;;35.03;6.13;;;29.10;47.90;;;;;;5032725;28;20749;-77
2023/07/19 10:43:15;;;;;;;47.63;7.47;;;29.10;47.90;;;;;;5030863;28;20304;-68
2023/07/19 10:45:43;;;;;;;24.90;5.23;;;29.10;47.90;;;;;;5031321;28;20238;-67
2023/07/19 10:48:11;;;;;;;25.07;5.37;;;29.10;47.90;;;;;;5031981;28;20599;-76
2023/07/19 10:50:39;;;;;;;21.37;5.07;;;29.10;47.90;;;;;;5030747;28;20204;-74
2023/07/19 10:53:07;;;;;;;26.40;5.03;;;29.10;47.90;;;;;;5046676;28;20987;-66
2023/07/19 10:55:34;;;;;;;31.37;6.00;;;29.10;47.90;;;;;;5045003;28;20210;-72
2023/07/19 10:58:01;;;;;;;41.37;6.60;;;29.10;48.00;;;;;;5037064;28;20209;-66
2023/07/19 11:00:28;;;;;;;27.83;5.33;;;29.10;47.90;;;;;;5030897;28;20228;-66
2023/07/19 11:02:55;;;;;;;25.27;5.37;;;29.10;48.00;;;;;;5039846;28;20208;-73
2023/07/19 11:05:23;;;;;;;29.97;5.73;;;29.10;48.10;;;;;;5050530;28;20220;-66
2023/07/19 11:07:51;;;;;;;25.30;5.00;;;29.10;48.20;;;;;;5044001;28;20228;-71
2023/07/19 11:10:19;;;;;;;20.43;5.13;;;29.10;48.20;;;;;;5030999;28;20201;-73
2023/07/19 11:12:46;;;;;;;31.93;5.80;;;29.20;48.30;;;;;;5030768;28;20579;-66
2023/07/19 11:15:13;;;;;;;22.90;4.73;;;29.20;48.40;;;;;;5035070;28;20215;-71
2023/07/19 11:17:40;;;;;;;19.93;4.70;;;29.30;48.50;;;;;;5046531;28;20570;-73
2023/07/19 11:20:10;;;;;;;25.63;5.27;;;29.30;48.50;;;;;;5050222;28;20954;-67
2023/07/19 11:22:38;;;;;;;20.30;4.87;;;29.40;48.50;;;;;;5048712;28;20720;-66
2023/07/19 11:25:11;;;;;;;27.97;5.50;;;29.40;48.50;;;;;;5051667;28;20230;-73
2023/07/19 11:27:39;;;;;;;29.27;5.87;;;29.50;49.30;;;;;;5062717;28;20206;-71
2023/07/19 11:30:07;;;;;;;20.10;4.83;;;29.50;48.60;;;;;;5051106;28;20195;-66
2023/07/19 11:32:34;;;;;;;20.60;5.13;;;29.60;48.70;;;;;;5048950;28;20426;-67
2023/07/19 11:35:02;;;;;;;29.97;6.03;;;29.70;48.80;;;;;;5050746;28;20658;-66
2023/07/19 11:37:30;;;;;;;29.13;5.50;;;29.70;48.80;;;;;;5049408;28;20250;-67
2023/07/19 11:39:59;;;;;;;20.13;4.83;;;29.90;49.00;;;;;;5036940;28;20197;-67
2023/07/19 11:42:43;;;;;;;23.37;5.03;;;29.90;49.00;;;;;;5031450;28;20201;-71
2023/07/19 11:45:12;;;;;;;24.03;5.40;;;30.10;49.20;;;;;;5034761;28;20238;-85
2023/07/19 11:47:39;;;;;;;20.20;4.87;;;30.20;48.90;;;;;;5039815;28;20299;-83
2023/07/19 11:50:07;;;;;;;32.00;6.10;;;30.30;48.70;;;;;;5035241;28;20240;-80
2023/07/19 11:52:46;;;;;;;45.03;7.00;;;30.30;48.50;;;;;;5030736;28;20820;-83
2023/07/19 11:55:16;;;;;;;23.77;5.23;;;30.50;48.40;;;;;;5039891;28;20203;-76
2023/07/19 11:57:44;;;;;;;28.30;5.50;;;30.50;48.20;;;;;;5036674;28;20283;-73
2023/07/19 12:00:14;;;;;;;30.10;5.80;;;30.60;48.10;;;;;;5037157;28;20211;-81
2023/07/19 12:02:44;;;;;;;31.73;5.67;;;30.60;48.00;;;;;;5032002;28;20200;-78
2023/07/19 12:05:11;;;;;;;28.60;5.40;;;30.70;48.00;;;;;;5048887;28;20212;-74
2023/07/19 12:07:38;;;;;;;29.97;5.97;;;30.70;47.80;;;;;;5030373;28;20209;-71
2023/07/19 12:10:06;;;;;;;26.43;5.23;;;30.70;47.70;;;;;;5033847;28;20193;-84
2023/07/19 12:12:35;;;;;;;35.17;6.43;;;30.70;47.60;;;;;;5031111;28;20201;-74
2023/07/19 12:15:04;;;;;;;16.67;4.37;;;30.70;47.60;;;;;;5030979;28;20201;-77
2023/07/19 12:17:31;;;;;;;26.35;5.38;;;30.70;47.60;;;;;;5040589;28;20204;-66
2023/07/19 12:19:59;;;;;;;33.43;5.77;;;30.60;47.50;;;;;;5048241;28;20249;-68
2023/07/19 12:22:26;;;;;;;24.33;5.33;;;30.60;47.60;;;;;;5042274;28;20291;-80
2023/07/19 12:24:53;;;;;;;40.07;6.83;;;30.60;47.60;;;;;;5038885;28;20224;-73
2023/07/19 12:27:20;;;;;;;30.80;5.83;;;30.60;47.60;;;;;;5049488;28;20284;-69
2023/07/19 12:29:48;;;;;;;27.53;5.73;;;30.60;47.70;;;;;;5049845;28;20709;-67
2023/07/19 12:32:16;;;;;;;24.17;5.10;;;30.50;47.60;;;;;;5040233;28;20235;-67
2023/07/19 12:34:44;;;;;;;23.70;5.30;;;30.50;47.70;;;;;;5046838;28;20924;-67
2023/07/19 12:37:11;;;;;;;34.73;6.40;;;30.50;47.70;;;;;;5048551;28;20222;-66
2023/07/19 12:39:38;;;;;;;18.47;4.53;;;30.50;47.70;;;;;;5049310;28;20196;-66